Time;durP1;ratioP1;P1;durP2;ratioP2;P2;SDS_P1;SDS_P2;PMS_P1;PMS_P2;Temp;Humidity;BMP_temperature;BMP_pressure;BME280_temperature;BME280_humidity;BME280_pressure;Samples;Min_cycle;Max_cycle;Signal;HPM_P1;HPM_P2
2022/10/18 00:01:51;;;;;;;64.95;29.50;;;12.80;99.90;;;;;;4931805;28;210076;-70
2022/10/18 00:04:18;;;;;;;66.38;30.15;;;12.80;99.90;;;;;;5020615;28;20446;-71
2022/10/18 00:06:44;;;;;;;67.28;28.83;;;12.90;99.90;;;;;;4958422;28;224311;-70
2022/10/18 00:09:10;;;;;;;70.32;30.02;;;12.90;99.90;;;;;;5016648;28;20061;-71
2022/10/18 00:11:36;;;;;;;63.50;28.98;;;12.80;99.90;;;;;;4961976;28;215292;-70
2022/10/18 00:14:02;;;;;;;64.55;30.55;;;12.80;99.90;;;;;;5024877;28;20056;-71
2022/10/18 00:16:29;;;;;;;67.03;29.90;;;12.90;99.90;;;;;;4958933;28;226409;-71
2022/10/18 00:18:55;;;;;;;59.85;28.67;;;12.90;99.90;;;;;;5020135;28;20065;-71
2022/10/18 00:21:24;;;;;;;81.43;29.95;;;12.90;99.90;;;;;;4977459;28;216091;-71
2022/10/18 00:23:51;;;;;;;64.38;28.42;;;12.90;99.90;;;;;;5020871;28;20057;-71
2022/10/18 00:26:20;;;;;;;65.13;29.08;;;12.90;99.90;;;;;;4957452;28;252896;-71
2022/10/18 00:28:53;;;;;;;83.10;30.67;;;12.80;99.90;;;;;;5016342;28;20065;-70
2022/10/18 00:31:23;;;;;;;92.93;29.65;;;12.90;99.90;;;;;;4972744;28;201257;-70
2022/10/18 00:33:51;;;;;;;56.30;24.30;;;12.80;99.90;;;;;;5018915;28;20054;-70
2022/10/18 00:36:18;;;;;;;65.18;26.50;;;12.80;99.90;;;;;;4991174;28;208668;-70
2022/10/18 00:38:45;;;;;;;66.65;25.08;;;12.80;99.90;;;;;;5019705;28;20510;-71
2022/10/18 00:41:18;;;;;;;59.08;25.00;;;12.80;99.90;;;;;;4968571;28;137683;-72
2022/10/18 00:43:52;;;;;;;65.20;25.40;;;12.70;99.90;;;;;;5017375;28;20064;-71
2022/10/18 00:46:18;;;;;;;64.93;25.98;;;12.70;99.90;;;;;;4987457;28;208007;-71
2022/10/18 00:48:44;;;;;;;58.03;26.10;;;12.70;99.90;;;;;;5021853;28;20053;-71
2022/10/18 00:51:11;;;;;;;60.58;24.92;;;12.70;99.90;;;;;;4964440;28;212640;-71
2022/10/18 00:53:38;;;;;;;57.05;25.92;;;12.70;99.90;;;;;;5010506;28;20052;-71
2022/10/18 00:56:04;;;;;;;66.82;26.65;;;12.70;99.90;;;;;;4954974;28;209940;-71
2022/10/18 00:58:31;;;;;;;66.03;26.88;;;12.70;99.90;;;;;;5013200;28;20084;-71
2022/10/18 01:00:57;;;;;;;56.00;26.67;;;12.70;99.90;;;;;;4968209;28;214259;-71
2022/10/18 01:03:23;;;;;;;64.88;27.70;;;12.70;99.90;;;;;;4996279;28;20057;-71
2022/10/18 01:05:49;;;;;;;73.00;29.73;;;12.70;99.90;;;;;;4954875;28;186124;-71
2022/10/18 01:08:40;;;;;;;65.30;27.20;;;12.70;99.90;;;;;;4997313;28;20069;-71
2022/10/18 01:11:30;;;;;;;57.60;27.43;;;12.70;99.90;;;;;;4990226;28;217735;-71
2022/10/18 01:14:09;;;;;;;64.10;27.30;;;12.70;99.90;;;;;;5005611;28;20052;-71
2022/10/18 01:17:02;;;;;;;57.78;25.25;;;12.70;99.90;;;;;;4971142;28;229535;-71
2022/10/18 01:20:01;;;;;;;72.53;26.95;;;12.70;99.90;;;;;;5006878;28;20521;-71
2022/10/18 01:22:31;;;;;;;61.75;29.13;;;12.60;99.90;;;;;;4982596;28;207967;-71
2022/10/18 01:25:25;;;;;;;65.53;28.00;;;12.60;99.90;;;;;;4980714;28;209883;-71
2022/10/18 01:28:14;;;;;;;64.07;25.45;;;12.60;99.90;;;;;;5020260;28;20049;-71
2022/10/18 01:30:47;;;;;;;79.32;27.05;;;12.60;99.90;;;;;;4918587;28;180882;-71
2022/10/18 01:33:20;;;;;;;56.55;26.55;;;12.50;99.90;;;;;;4970235;28;20630;-71
2022/10/18 01:35:52;;;;;;;83.25;28.23;;;12.50;99.90;;;;;;4910133;28;215732;-72
2022/10/18 01:38:20;;;;;;;66.50;27.40;;;12.40;99.90;;;;;;4964105;28;21701;-72
2022/10/18 01:40:48;;;;;;;66.38;26.00;;;12.40;99.90;;;;;;4912885;28;216795;-71
2022/10/18 01:43:17;;;;;;;71.05;28.83;;;12.40;99.90;;;;;;4961553;28;20076;-69
2022/10/18 01:45:44;;;;;;;67.05;27.02;;;12.40;99.90;;;;;;4935878;28;204527;-71
2022/10/18 01:48:11;;;;;;;63.85;27.58;;;12.40;99.90;;;;;;4964152;28;20062;-71
2022/10/18 01:50:38;;;;;;;61.97;26.75;;;12.30;99.90;;;;;;4921085;28;222395;-70
2022/10/18 01:53:04;;;;;;;65.85;26.92;;;12.30;99.90;;;;;;4975402;28;20046;-70
2022/10/18 01:55:49;;;;;;;65.18;26.67;;;12.30;99.90;;;;;;4920874;28;191447;-70
2022/10/18 01:58:36;;;;;;;68.03;27.30;;;12.30;99.90;;;;;;4977927;28;20393;-70
2022/10/18 02:01:22;;;;;;;61.78;27.52;;;12.30;99.90;;;;;;4919369;28;215112;-71
2022/10/18 02:03:55;;;;;;;73.38;29.95;;;12.30;99.90;;;;;;4959450;28;20055;-71
2022/10/18 02:06:30;;;;;;;74.75;29.75;;;12.40;99.90;;;;;;4919280;28;207016;-71
2022/10/18 02:09:11;;;;;;;70.43;28.77;;;12.40;99.90;;;;;;5016023;28;20065;-71
2022/10/18 02:11:39;;;;;;;80.35;30.27;;;12.40;99.90;;;;;;4986878;28;206829;-70
2022/10/18 02:14:11;;;;;;;89.80;32.25;;;12.40;99.90;;;;;;5023616;28;20049;-72
2022/10/18 02:16:54;;;;;;;89.07;32.13;;;12.40;99.90;;;;;;4976834;28;206796;-71
2022/10/18 02:19:27;;;;;;;96.05;33.47;;;12.40;99.90;;;;;;5033096;28;20061;-72
2022/10/18 02:21:56;;;;;;;103.78;33.58;;;12.40;99.90;;;;;;4975608;28;207182;-71
2022/10/18 02:24:26;;;;;;;72.38;28.10;;;12.40;99.90;;;;;;5005097;28;20057;-71
2022/10/18 02:26:52;;;;;;;98.53;32.73;;;12.40;99.90;;;;;;4985657;28;206920;-69
2022/10/18 02:29:18;;;;;;;95.32;33.10;;;12.30;99.90;;;;;;5016235;28;20322;-71
2022/10/18 02:31:54;;;;;;;71.30;29.70;;;12.30;99.90;;;;;;4952853;28;205998;-71
2022/10/18 02:34:46;;;;;;;86.45;30.70;;;12.30;99.90;;;;;;5027896;28;20037;-71
2022/10/18 02:37:14;;;;;;;104.22;32.58;;;12.30;99.90;;;;;;4933164;28;211296;-71
2022/10/18 02:39:47;;;;;;;124.32;31.42;;;12.30;99.90;;;;;;4968247;28;145860;-71
2022/10/18 02:42:14;;;;;;;256.42;35.60;;;12.20;99.90;;;;;;4952505;28;209208;-71
2022/10/18 02:44:41;;;;;;;239.50;35.22;;;12.30;99.90;;;;;;4966009;28;208100;-71
2022/10/18 02:47:10;;;;;;;313.90;37.10;;;12.20;99.90;;;;;;4948790;28;208421;-72
2022/10/18 02:49:36;;;;;;;331.08;37.33;;;12.20;99.90;;;;;;4977814;28;171744;-72
2022/10/18 02:52:02;;;;;;;363.40;41.90;;;12.30;99.90;;;;;;4964554;28;217464;-73
2022/10/18 02:54:28;;;;;;;644.28;57.25;;;12.20;99.90;;;;;;4987008;28;20062;-72
2022/10/18 02:56:54;;;;;;;360.45;37.28;;;12.30;99.90;;;;;;4942532;28;208414;-72
2022/10/18 02:59:20;;;;;;;348.10;39.45;;;12.20;99.90;;;;;;4985886;28;20642;-72
2022/10/18 03:01:46;;;;;;;354.80;36.15;;;12.30;99.90;;;;;;4953517;28;205873;-72
2022/10/18 03:04:13;;;;;;;371.90;37.20;;;12.30;99.90;;;;;;4982352;28;20415;-72
2022/10/18 03:06:39;;;;;;;481.10;42.03;;;12.30;99.90;;;;;;4930471;28;214537;-72
2022/10/18 03:09:06;;;;;;;392.33;35.50;;;12.30;99.90;;;;;;4983049;28;20672;-72
2022/10/18 03:11:32;;;;;;;305.70;34.00;;;12.30;99.90;;;;;;4915222;28;182893;-72
2022/10/18 03:13:58;;;;;;;308.88;33.67;;;12.30;99.90;;;;;;4999052;28;20045;-72
2022/10/18 03:16:25;;;;;;;430.17;37.47;;;12.30;99.90;;;;;;4971454;28;212028;-72
2022/10/18 03:18:51;;;;;;;434.95;39.60;;;12.30;99.90;;;;;;5017929;28;20060;-72
2022/10/18 03:21:17;;;;;;;494.45;42.10;;;12.40;99.90;;;;;;4969622;28;210486;-72
2022/10/18 03:23:43;;;;;;;523.65;39.47;;;12.40;99.90;;;;;;5016001;28;20053;-73
2022/10/18 03:26:09;;;;;;;508.73;43.85;;;12.40;99.90;;;;;;4964195;28;214659;-72
2022/10/18 03:28:35;;;;;;;385.20;34.20;;;12.40;99.90;;;;;;5021744;28;20041;-72
2022/10/18 03:31:03;;;;;;;495.65;40.88;;;12.40;99.90;;;;;;4976529;28;223190;-72
2022/10/18 03:33:30;;;;;;;502.67;42.75;;;12.40;99.90;;;;;;5012226;28;20050;-71
2022/10/18 03:35:56;;;;;;;371.95;32.72;;;12.40;99.90;;;;;;4980440;28;207632;-71
2022/10/18 03:38:23;;;;;;;402.90;34.47;;;12.40;99.90;;;;;;5022308;28;20056;-72
2022/10/18 03:40:49;;;;;;;357.45;34.63;;;12.40;99.90;;;;;;4947645;28;205563;-72
2022/10/18 03:43:15;;;;;;;329.23;33.17;;;12.40;99.90;;;;;;5017168;28;20049;-72
2022/10/18 03:45:41;;;;;;;285.23;32.95;;;12.40;99.90;;;;;;4966617;28;230091;-71
2022/10/18 03:48:07;;;;;;;277.98;29.80;;;12.40;99.90;;;;;;4994691;28;20061;-71
2022/10/18 03:50:33;;;;;;;314.10;30.42;;;12.40;99.90;;;;;;4971566;28;206187;-72
2022/10/18 03:52:59;;;;;;;417.58;37.17;;;12.40;99.90;;;;;;5009843;28;20518;-71
2022/10/18 03:55:26;;;;;;;437.33;37.60;;;12.40;99.90;;;;;;4961989;28;209745;-71
2022/10/18 03:57:52;;;;;;;438.90;39.40;;;12.40;99.90;;;;;;5003184;28;20065;-71
2022/10/18 04:00:18;;;;;;;595.28;48.72;;;12.40;99.90;;;;;;4955958;28;212320;-72
2022/10/18 04:02:45;;;;;;;436.83;38.05;;;12.40;99.90;;;;;;5002107;28;20058;-72
2022/10/18 04:05:11;;;;;;;478.15;41.17;;;12.40;99.90;;;;;;4980494;28;208778;-70
2022/10/18 04:07:37;;;;;;;441.13;34.38;;;12.40;99.90;;;;;;5016061;28;20515;-70
2022/10/18 04:10:04;;;;;;;408.70;33.83;;;12.40;99.90;;;;;;4972080;28;228823;-70
2022/10/18 04:12:30;;;;;;;455.98;36.20;;;12.40;99.90;;;;;;5011916;28;20054;-71
2022/10/18 04:14:56;;;;;;;544.35;41.03;;;12.50;99.90;;;;;;4958476;28;211002;-71
2022/10/18 04:17:22;;;;;;;630.97;49.53;;;12.50;99.90;;;;;;5017681;28;20057;-71
2022/10/18 04:19:48;;;;;;;692.65;52.70;;;12.50;99.90;;;;;;4973302;28;211524;-70
2022/10/18 04:22:15;;;;;;;463.85;36.97;;;12.40;99.90;;;;;;5001739;28;20064;-71
2022/10/18 04:24:41;;;;;;;375.50;33.07;;;12.50;99.90;;;;;;4994641;28;207844;-72
2022/10/18 04:27:07;;;;;;;412.17;34.22;;;12.50;99.90;;;;;;4984136;28;122010;-71
2022/10/18 04:29:33;;;;;;;393.40;34.53;;;12.40;99.90;;;;;;5021016;28;20054;-71
2022/10/18 04:32:00;;;;;;;517.55;42.58;;;12.50;99.90;;;;;;4971420;28;206674;-71
2022/10/18 04:34:26;;;;;;;494.48;43.22;;;12.50;99.90;;;;;;5023455;28;20364;-70
2022/10/18 04:36:53;;;;;;;344.50;32.42;;;12.50;99.90;;;;;;4972527;28;209205;-70
2022/10/18 04:39:19;;;;;;;399.15;36.17;;;12.40;99.90;;;;;;5025602;28;20061;-71
2022/10/18 04:41:45;;;;;;;300.77;28.05;;;12.40;99.90;;;;;;4962262;28;206558;-71
2022/10/18 04:44:11;;;;;;;323.17;30.38;;;12.40;99.90;;;;;;5025069;28;20053;-71
2022/10/18 04:46:37;;;;;;;174.02;25.50;;;12.40;99.90;;;;;;4962118;28;213303;-70
2022/10/18 04:49:03;;;;;;;255.45;27.52;;;12.40;99.90;;;;;;5023434;28;20137;-71
2022/10/18 04:51:30;;;;;;;199.60;25.67;;;12.40;99.90;;;;;;4969399;28;215811;-70
2022/10/18 04:53:56;;;;;;;326.90;30.48;;;12.30;99.90;;;;;;5008987;28;20072;-71
2022/10/18 04:56:23;;;;;;;281.83;28.77;;;12.30;99.90;;;;;;4970810;28;213078;-70
2022/10/18 04:58:49;;;;;;;235.05;26.55;;;12.30;99.90;;;;;;5007859;28;20056;-71
2022/10/18 05:01:16;;;;;;;288.50;29.77;;;12.30;99.90;;;;;;4961543;28;206695;-70
2022/10/18 05:03:42;;;;;;;272.17;29.27;;;12.30;99.90;;;;;;4998246;28;20054;-70
2022/10/18 05:06:08;;;;;;;143.43;20.92;;;12.20;99.90;;;;;;4976167;28;214401;-70
2022/10/18 05:08:35;;;;;;;231.35;24.20;;;12.20;99.90;;;;;;5022437;28;20065;-70
2022/10/18 05:11:03;;;;;;;223.23;23.15;;;12.10;99.90;;;;;;4959975;28;211918;-71
2022/10/18 05:13:29;;;;;;;383.55;31.00;;;12.10;99.90;;;;;;5019987;28;20064;-71
2022/10/18 05:15:58;;;;;;;232.75;23.60;;;12.10;99.90;;;;;;4973855;28;194096;-71
2022/10/18 05:18:24;;;;;;;211.23;22.17;;;12.00;99.90;;;;;;5022751;28;20159;-71
2022/10/18 05:20:50;;;;;;;268.08;24.92;;;12.00;99.90;;;;;;4953508;28;203751;-70
2022/10/18 05:23:16;;;;;;;306.13;27.92;;;11.90;99.90;;;;;;5014865;28;20645;-71
2022/10/18 05:25:43;;;;;;;283.75;27.73;;;12.00;99.90;;;;;;4988693;28;207353;-71
2022/10/18 05:28:09;;;;;;;226.55;23.13;;;11.90;99.90;;;;;;5026735;28;20057;-71
2022/10/18 05:30:39;;;;;;;259.08;23.50;;;11.90;99.90;;;;;;4979346;28;209674;-72
2022/10/18 05:33:05;;;;;;;295.60;27.23;;;11.90;99.90;;;;;;5013635;28;20053;-71
2022/10/18 05:35:32;;;;;;;275.38;27.55;;;11.80;99.90;;;;;;4977965;28;209750;-71
2022/10/18 05:38:02;;;;;;;196.30;22.48;;;11.80;99.90;;;;;;5022390;28;20537;-71
2022/10/18 05:40:28;;;;;;;239.75;23.60;;;11.80;99.90;;;;;;4981513;28;211786;-71
2022/10/18 05:42:54;;;;;;;220.05;24.95;;;11.80;99.90;;;;;;4999725;28;20064;-71
2022/10/18 05:45:20;;;;;;;278.45;28.08;;;11.80;99.90;;;;;;4986224;28;211093;-71
2022/10/18 05:47:46;;;;;;;224.57;26.20;;;11.80;99.90;;;;;;5019856;28;20427;-73
2022/10/18 05:50:12;;;;;;;189.10;24.23;;;11.70;99.90;;;;;;4958404;28;218345;-71
2022/10/18 05:52:38;;;;;;;248.18;25.25;;;11.70;99.90;;;;;;5029929;28;20506;-72
2022/10/18 05:55:05;;;;;;;329.40;29.42;;;11.70;99.90;;;;;;4974340;28;208291;-72
2022/10/18 05:57:31;;;;;;;215.20;20.88;;;11.70;99.90;;;;;;5017550;28;20065;-71
2022/10/18 05:59:57;;;;;;;172.38;22.58;;;11.70;99.90;;;;;;4989413;28;221901;-72
2022/10/18 06:02:23;;;;;;;140.13;21.63;;;11.60;99.90;;;;;;5013854;28;20438;-71
2022/10/18 06:04:49;;;;;;;201.60;22.38;;;11.60;99.90;;;;;;4984250;28;206949;-71
2022/10/18 06:07:16;;;;;;;160.98;23.05;;;11.50;99.90;;;;;;5012936;28;20495;-71
2022/10/18 06:09:42;;;;;;;151.77;20.77;;;11.50;99.90;;;;;;5002279;28;209852;-71
2022/10/18 06:12:08;;;;;;;220.90;26.15;;;11.40;99.90;;;;;;4987786;28;209208;-70
2022/10/18 06:14:35;;;;;;;214.75;23.85;;;11.40;99.90;;;;;;5024446;28;20046;-71
2022/10/18 06:17:02;;;;;;;205.05;20.83;;;11.40;99.90;;;;;;4950925;28;206992;-71
2022/10/18 06:19:28;;;;;;;243.20;20.92;;;11.30;99.90;;;;;;5033595;28;20054;-72
2022/10/18 06:21:54;;;;;;;242.40;19.55;;;11.30;99.90;;;;;;4969532;28;211272;-71
2022/10/18 06:24:20;;;;;;;202.35;20.17;;;11.20;99.90;;;;;;5007497;28;20060;-72
2022/10/18 06:26:47;;;;;;;146.70;17.48;;;11.20;99.90;;;;;;4958845;28;209056;-72
2022/10/18 06:29:13;;;;;;;235.25;19.17;;;11.10;99.90;;;;;;5028602;28;20045;-72
2022/10/18 06:31:39;;;;;;;163.45;20.08;;;11.10;99.90;;;;;;4954120;28;211202;-72
2022/10/18 06:34:05;;;;;;;88.85;17.77;;;11.00;99.90;;;;;;5025816;28;20315;-72
2022/10/18 06:36:31;;;;;;;107.18;17.45;;;11.00;99.90;;;;;;4984104;28;208520;-72
2022/10/18 06:38:58;;;;;;;154.15;19.30;;;11.00;99.90;;;;;;5026352;28;20053;-72
2022/10/18 06:41:25;;;;;;;86.15;16.42;;;11.00;99.90;;;;;;4968070;28;214966;-72
2022/10/18 06:43:55;;;;;;;103.53;16.65;;;11.00;99.90;;;;;;5029248;28;21598;-72
2022/10/18 06:46:22;;;;;;;117.00;17.95;;;11.00;99.90;;;;;;4970918;28;210851;-71
2022/10/18 06:48:48;;;;;;;79.53;16.27;;;10.90;99.90;;;;;;5007697;28;20057;-72
2022/10/18 06:51:14;;;;;;;94.28;16.02;;;10.90;99.90;;;;;;4978715;28;219035;-71
2022/10/18 06:53:40;;;;;;;165.10;23.02;;;10.90;99.90;;;;;;5017100;28;20050;-71
2022/10/18 06:56:10;;;;;;;145.57;20.35;;;10.90;99.90;;;;;;4964583;28;177029;-72
2022/10/18 06:58:36;;;;;;;171.43;21.77;;;10.90;99.90;;;;;;5024571;28;20046;-71
2022/10/18 07:01:07;;;;;;;212.38;19.48;;;10.90;99.90;;;;;;4967283;28;204899;-72
2022/10/18 07:03:34;;;;;;;199.70;21.25;;;11.00;99.90;;;;;;5026023;28;20033;-72
2022/10/18 07:06:01;;;;;;;152.40;19.60;;;11.00;99.90;;;;;;4978473;28;207937;-72
2022/10/18 07:08:28;;;;;;;282.92;24.88;;;11.00;99.90;;;;;;5022544;28;20051;-72
2022/10/18 07:10:54;;;;;;;267.70;19.17;;;11.00;99.90;;;;;;4970491;28;211438;-71
2022/10/18 07:13:21;;;;;;;246.55;19.08;;;11.00;99.90;;;;;;5020448;28;20049;-71
2022/10/18 07:15:47;;;;;;;287.10;20.25;;;11.00;99.90;;;;;;4973544;28;206452;-71
2022/10/18 07:18:13;;;;;;;272.98;20.70;;;11.00;99.90;;;;;;5016997;28;20050;-72
2022/10/18 07:20:40;;;;;;;174.73;19.77;;;11.00;99.90;;;;;;4981123;28;221993;-72
2022/10/18 07:23:08;;;;;;;277.40;19.98;;;11.10;99.90;;;;;;5032108;28;20045;-71
2022/10/18 07:25:34;;;;;;;321.80;23.42;;;11.20;99.90;;;;;;4973552;28;211868;-71
2022/10/18 07:28:01;;;;;;;351.80;18.05;;;11.10;99.90;;;;;;5014151;28;20045;-70
2022/10/18 07:30:27;;;;;;;312.90;20.88;;;11.10;99.90;;;;;;4984366;28;221647;-71
2022/10/18 07:32:53;;;;;;;275.77;19.45;;;11.10;99.90;;;;;;5033431;28;20388;-71
2022/10/18 07:35:19;;;;;;;252.00;17.33;;;11.10;99.90;;;;;;4976912;28;207707;-71
2022/10/18 07:37:45;;;;;;;228.48;16.08;;;11.10;99.90;;;;;;4999663;28;20414;-70
2022/10/18 07:40:11;;;;;;;347.92;22.98;;;11.10;99.90;;;;;;4972235;28;227365;-70
2022/10/18 07:42:38;;;;;;;183.90;16.05;;;11.10;99.90;;;;;;5023861;28;20044;-71
2022/10/18 07:45:04;;;;;;;205.10;16.65;;;11.20;99.90;;;;;;4976164;28;214900;-70
2022/10/18 07:47:30;;;;;;;287.58;15.75;;;11.30;99.90;;;;;;5021878;28;20045;-71
2022/10/18 07:49:56;;;;;;;254.52;15.85;;;11.30;99.90;;;;;;4986258;28;216811;-71
2022/10/18 07:52:22;;;;;;;234.07;16.00;;;11.20;99.90;;;;;;4990930;28;20057;-71
2022/10/18 07:54:48;;;;;;;290.67;18.73;;;11.30;99.90;;;;;;4973625;28;213126;-72
2022/10/18 07:57:14;;;;;;;175.10;15.65;;;11.40;99.90;;;;;;4994766;28;20062;-72
2022/10/18 07:59:43;;;;;;;130.25;14.18;;;11.40;99.90;;;;;;5003233;28;205439;-72
2022/10/18 08:02:09;;;;;;;199.40;16.33;;;11.50;99.90;;;;;;4952047;28;215913;-72
2022/10/18 08:04:36;;;;;;;220.93;16.95;;;11.50;99.90;;;;;;5013190;28;213653;-71
2022/10/18 08:07:02;;;;;;;201.57;19.05;;;11.50;99.90;;;;;;5008189;28;214772;-72
2022/10/18 08:09:28;;;;;;;190.95;15.90;;;11.60;99.90;;;;;;5024304;28;20057;-70
2022/10/18 08:11:54;;;;;;;163.85;13.43;;;11.80;99.90;;;;;;4971940;28;200656;-71
2022/10/18 08:14:20;;;;;;;139.63;15.63;;;11.70;99.90;;;;;;5025549;28;20049;-71
2022/10/18 08:16:46;;;;;;;186.40;17.80;;;11.80;99.90;;;;;;4975825;28;214772;-71
2022/10/18 08:19:12;;;;;;;133.70;14.23;;;11.80;99.90;;;;;;5009389;28;20052;-71
2022/10/18 08:21:38;;;;;;;178.63;16.65;;;11.80;99.90;;;;;;4973348;28;208041;-71
2022/10/18 08:24:05;;;;;;;151.02;17.05;;;11.80;99.90;;;;;;5002787;28;20056;-70
2022/10/18 08:26:31;;;;;;;96.72;13.90;;;11.90;99.90;;;;;;4983411;28;206648;-71
2022/10/18 08:28:57;;;;;;;88.32;12.77;;;12.00;99.90;;;;;;5018781;28;20052;-71
2022/10/18 08:31:23;;;;;;;56.78;11.98;;;11.90;99.90;;;;;;4967031;28;208038;-71
2022/10/18 08:33:49;;;;;;;53.65;12.40;;;12.00;99.90;;;;;;5022304;28;20057;-71
2022/10/18 08:36:16;;;;;;;138.32;14.10;;;12.10;99.90;;;;;;4962069;28;216336;-70
2022/10/18 08:38:43;;;;;;;58.28;12.13;;;12.20;99.90;;;;;;5031723;28;20056;-71
2022/10/18 08:41:17;;;;;;;69.97;13.05;;;12.10;99.90;;;;;;4971039;28;210247;-71
2022/10/18 08:44:04;;;;;;;62.10;11.70;;;12.30;99.90;;;;;;5019019;28;20060;-71
2022/10/18 08:46:33;;;;;;;45.67;11.15;;;12.30;99.90;;;;;;4958645;28;214785;-70
2022/10/18 08:49:01;;;;;;;34.47;10.93;;;12.40;99.90;;;;;;5026094;28;20517;-71
2022/10/18 08:51:33;;;;;;;45.85;11.82;;;12.50;99.90;;;;;;4979697;28;208241;-71
2022/10/18 08:54:15;;;;;;;46.85;13.07;;;12.60;99.90;;;;;;5029545;28;20053;-71
2022/10/18 08:57:00;;;;;;;35.30;12.07;;;12.80;99.90;;;;;;4961792;28;219835;-71
2022/10/18 08:59:38;;;;;;;25.45;11.25;;;12.90;99.90;;;;;;5010144;28;20057;-71
2022/10/18 09:02:25;;;;;;;42.58;10.52;;;12.90;99.90;;;;;;4961706;28;203627;-71
2022/10/18 09:05:16;;;;;;;23.73;10.90;;;12.90;99.90;;;;;;4973834;28;209562;-71
2022/10/18 09:08:01;;;;;;;18.27;9.60;;;13.00;99.90;;;;;;4997144;28;20053;-71
2022/10/18 09:10:44;;;;;;;22.88;10.30;;;12.90;99.90;;;;;;4974602;28;211578;-70
2022/10/18 09:13:16;;;;;;;22.05;10.82;;;12.90;99.90;;;;;;5008747;28;20077;-71
2022/10/18 09:15:55;;;;;;;19.63;8.68;;;12.80;99.90;;;;;;4980980;28;206745;-70
2022/10/18 09:18:56;;;;;;;18.85;8.00;;;12.90;99.90;;;;;;5021933;28;20069;-71
2022/10/18 09:21:40;;;;;;;21.92;8.70;;;12.90;99.90;;;;;;4948417;28;211780;-71
2022/10/18 09:24:37;;;;;;;19.42;6.18;;;13.00;99.90;;;;;;5008690;28;20057;-70
2022/10/18 09:27:12;;;;;;;16.42;5.05;;;13.00;99.90;;;;;;4934325;28;209671;-70
2022/10/18 09:30:14;;;;;;;19.45;5.35;;;13.00;99.90;;;;;;5001176;28;20050;-71
2022/10/18 09:33:00;;;;;;;21.35;5.15;;;13.10;99.90;;;;;;4945561;28;207043;-70
2022/10/18 09:35:57;;;;;;;18.30;4.53;;;13.10;99.90;;;;;;4947197;28;205466;-71
2022/10/18 09:38:42;;;;;;;20.38;4.30;;;13.20;99.90;;;;;;4974932;28;20402;-71
2022/10/18 09:41:15;;;;;;;18.65;4.60;;;13.30;99.90;;;;;;4940947;28;207243;-71
2022/10/18 09:43:46;;;;;;;21.33;4.03;;;13.30;99.90;;;;;;4976638;28;20422;-70
2022/10/18 09:46:13;;;;;;;;;;;13.30;99.90;;;;;;4933817;28;206362;-70
2022/10/18 09:49:02;;;;;;;20.45;3.90;;;13.30;99.90;;;;;;5001311;28;20004;-70
2022/10/18 09:51:35;;;;;;;17.50;4.20;;;13.40;99.90;;;;;;4933782;28;200577;-70
2022/10/18 09:54:04;;;;;;;20.63;3.83;;;13.40;99.90;;;;;;4986586;28;20050;-70
2022/10/18 09:56:53;;;;;;;22.65;4.05;;;13.50;99.90;;;;;;4945822;28;209942;-71
2022/10/18 09:59:40;;;;;;;21.63;3.50;;;13.50;99.90;;;;;;5022488;28;20495;-71
2022/10/18 10:02:12;;;;;;;15.63;3.45;;;13.60;99.90;;;;;;4947520;28;213561;-71
2022/10/18 10:04:38;;;;;;;26.25;3.30;;;13.60;99.90;;;;;;4995240;28;232653;-71
2022/10/18 10:07:08;;;;;;;18.48;3.05;;;13.70;99.90;;;;;;4971226;28;208451;-70
2022/10/18 10:09:44;;;;;;;16.65;2.80;;;13.80;99.90;;;;;;5026323;28;20050;-70
2022/10/18 10:12:30;;;;;;;18.95;3.08;;;14.00;99.90;;;;;;4950072;28;208867;-70
2022/10/18 10:15:24;;;;;;;17.05;2.85;;;14.10;99.90;;;;;;4976045;28;209693;-71
2022/10/18 10:18:03;;;;;;;20.27;2.85;;;14.20;99.90;;;;;;5018014;28;20053;-70
2022/10/18 10:20:35;;;;;;;16.88;2.83;;;14.30;99.90;;;;;;4960885;28;208665;-71
2022/10/18 10:23:24;;;;;;;17.85;3.00;;;14.30;99.90;;;;;;5022127;28;20049;-71
2022/10/18 10:25:53;;;;;;;19.85;3.33;;;14.30;99.90;;;;;;4978549;28;211897;-70
2022/10/18 10:28:22;;;;;;;17.23;2.70;;;14.40;99.90;;;;;;5028149;28;20034;-70
2022/10/18 10:30:49;;;;;;;20.33;3.10;;;14.50;99.90;;;;;;4971205;28;208945;-71
2022/10/18 10:33:37;;;;;;;19.88;3.03;;;14.50;99.90;;;;;;5022260;28;20060;-69
2022/10/18 10:36:14;;;;;;;20.75;2.35;;;14.50;99.90;;;;;;4985485;28;212559;-70
2022/10/18 10:38:40;;;;;;;18.42;2.22;;;14.60;99.90;;;;;;5023648;28;20430;-69
2022/10/18 10:41:21;;;;;;;18.13;2.67;;;14.70;99.90;;;;;;4989417;28;210146;-71
2022/10/18 10:43:47;;;;;;;16.10;2.42;;;14.70;99.90;;;;;;5022899;28;20669;-71
2022/10/18 10:46:19;;;;;;;15.20;2.28;;;14.60;99.90;;;;;;4973486;28;226384;-70
2022/10/18 10:48:53;;;;;;;15.23;2.17;;;14.50;99.90;;;;;;5018834;28;20047;-70
2022/10/18 10:51:29;;;;;;;17.02;1.95;;;14.50;99.90;;;;;;4971174;28;209413;-71
2022/10/18 10:54:15;;;;;;;14.32;1.80;;;14.60;99.90;;;;;;5025570;28;20054;-70
2022/10/18 10:57:01;;;;;;;19.23;2.28;;;14.80;99.90;;;;;;4972956;28;209873;-71
2022/10/18 10:59:40;;;;;;;16.98;2.30;;;15.00;99.90;;;;;;5016977;28;20049;-71
2022/10/18 11:02:16;;;;;;;18.42;2.15;;;15.10;99.90;;;;;;4976602;28;208183;-70
2022/10/18 11:04:50;;;;;;;16.63;2.17;;;15.20;99.90;;;;;;4975209;28;210407;-70
2022/10/18 11:07:39;;;;;;;17.30;2.22;;;15.30;99.90;;;;;;5001026;28;210733;-70
2022/10/18 11:10:13;;;;;;;17.80;2.40;;;15.30;99.90;;;;;;4975996;28;218730;-70
2022/10/18 11:13:03;;;;;;;17.33;2.47;;;15.40;99.90;;;;;;5019221;28;20056;-70
2022/10/18 11:15:35;;;;;;;15.68;2.10;;;15.50;99.90;;;;;;4976635;28;208738;-70
2022/10/18 11:18:43;;;;;;;13.27;1.85;;;15.50;99.90;;;;;;5006180;28;20064;-71
2022/10/18 11:21:16;;;;;;;15.70;1.92;;;15.50;99.90;;;;;;4937404;28;210073;-71
2022/10/18 11:23:44;;;;;;;13.68;1.83;;;15.50;99.90;;;;;;4968990;28;20146;-70
2022/10/18 11:26:10;;;;;;;13.38;1.75;;;15.50;99.90;;;;;;4920580;28;215141;-70
2022/10/18 11:28:36;;;;;;;12.57;2.05;;;15.40;99.90;;;;;;4966055;28;20047;-70
2022/10/18 11:31:20;;;;;;;13.82;1.75;;;15.40;99.90;;;;;;4894000;28;216633;-71
2022/10/18 11:34:10;;;;;;;13.80;2.15;;;15.40;99.90;;;;;;4958899;28;20381;-70
2022/10/18 11:36:50;;;;;;;14.02;2.05;;;15.70;99.90;;;;;;4925204;28;208336;-71
2022/10/18 11:39:35;;;;;;;12.38;1.83;;;16.80;99.90;;;;;;4962431;28;20065;-71
2022/10/18 11:42:36;;;;;;;14.52;2.30;;;18.00;99.90;;;;;;4922949;28;214167;-71
2022/10/18 11:45:29;;;;;;;10.48;1.70;;;18.70;99.90;;;;;;4922686;28;211494;-69
2022/10/18 11:48:22;;;;;;;13.55;1.70;;;19.40;99.90;;;;;;4982730;28;20519;-70
2022/10/18 11:51:04;;;;;;;17.40;1.95;;;20.00;99.90;;;;;;4919973;28;145881;-70
2022/10/18 11:53:39;;;;;;;14.85;2.40;;;20.50;99.90;;;;;;4947579;28;20058;-71
2022/10/18 11:56:27;;;;;;;14.30;2.15;;;21.20;99.90;;;;;;4965592;28;206884;-70
2022/10/18 11:59:10;;;;;;;13.45;1.75;;;21.70;99.90;;;;;;5001195;28;20046;-71
2022/10/18 12:01:49;;;;;;;12.38;1.70;;;22.00;99.90;;;;;;4959448;28;224385;-71
2022/10/18 12:04:24;;;;;;;10.00;1.75;;;22.00;99.00;;;;;;5017654;28;20061;-71
2022/10/18 12:06:55;;;;;;;11.35;1.80;;;21.90;99.90;;;;;;4959332;28;210788;-71
2022/10/18 12:09:24;;;;;;;14.13;2.08;;;21.50;97.60;;;;;;5025573;28;20322;-71
2022/10/18 12:11:59;;;;;;;12.27;1.80;;;21.70;99.80;;;;;;4964623;28;207702;-71
2022/10/18 12:14:35;;;;;;;14.63;1.88;;;21.10;97.00;;;;;;5024311;28;20061;-71
2022/10/18 12:17:15;;;;;;;11.48;1.83;;;19.90;98.50;;;;;;4986867;28;127242;-71
2022/10/18 12:19:42;;;;;;;12.18;1.88;;;18.80;99.80;;;;;;5008579;28;208158;-71
2022/10/18 12:22:26;;;;;;;11.55;2.00;;;19.00;99.90;;;;;;5003201;28;206956;-70
2022/10/18 12:24:52;;;;;;;12.60;1.95;;;20.20;99.90;;;;;;4961902;28;207920;-70
2022/10/18 12:27:31;;;;;;;13.65;1.85;;;20.60;99.90;;;;;;5016589;28;20046;-71
2022/10/18 12:30:05;;;;;;;14.73;2.30;;;21.40;98.80;;;;;;4951124;28;209974;-71
2022/10/18 12:32:35;;;;;;;14.38;1.98;;;21.10;99.70;;;;;;5012514;28;20061;-71
2022/10/18 12:35:14;;;;;;;11.23;1.90;;;20.40;99.20;;;;;;4960376;28;215586;-72
2022/10/18 12:38:05;;;;;;;14.02;1.83;;;19.90;99.80;;;;;;5009442;28;20060;-71
2022/10/18 12:40:40;;;;;;;11.80;1.90;;;19.70;99.90;;;;;;4970014;28;208836;-71
2022/10/18 12:43:09;;;;;;;13.50;1.95;;;20.90;99.90;;;;;;5019474;28;20046;-72